Time;durP1;ratioP1;P1;durP2;ratioP2;P2;SDS_P1;SDS_P2;PMS_P1;PMS_P2;Temp;Humidity;BMP_temperature;BMP_pressure;BME280_temperature;BME280_humidity;BME280_pressure;Samples;Min_cycle;Max_cycle;Signal;HPM_P1;HPM_P2
2021/12/08 00:00:06;;;;;;;37.73;25.80;;;0.20;99.90;;;;;;4993008;28;20489;-53
2021/12/08 00:02:33;;;;;;;38.20;25.50;;;0.20;99.90;;;;;;4990211;28;20496;-53
2021/12/08 00:04:59;;;;;;;36.03;24.13;;;0.20;94.50;;;;;;4990996;28;20536;-54
2021/12/08 00:07:26;;;;;;;38.17;26.20;;;0.20;94.50;;;;;;4993761;28;20495;-53
2021/12/08 00:10:04;;;;;;;36.10;23.70;;;0.20;99.90;;;;;;4990619;28;20609;-54
2021/12/08 00:15:16;;;;;;;36.13;24.07;;;0.20;99.90;;;;;;4991065;28;20451;-53
2021/12/08 00:17:42;;;;;;;39.40;25.10;;;0.20;99.90;;;;;;4986389;28;20497;-54
2021/12/08 00:20:10;;;;;;;33.60;24.27;;;0.20;99.90;;;;;;4984766;28;20507;-54
2021/12/08 00:22:37;;;;;;;34.20;24.53;;;0.20;97.80;;;;;;4994186;28;20495;-54
2021/12/08 00:25:04;;;;;;;36.43;25.00;;;0.10;99.90;;;;;;4992730;28;20485;-54
2021/12/08 00:27:30;;;;;;;41.33;26.40;;;0.10;99.20;;;;;;4991356;28;20863;-54
2021/12/08 00:29:57;;;;;;;44.63;25.53;;;0.10;99.90;;;;;;4989629;28;20512;-54
2021/12/08 00:32:29;;;;;;;37.47;23.50;;;0.10;99.90;;;;;;4988317;28;20514;-55
2021/12/08 00:34:56;;;;;;;38.87;26.07;;;0.10;99.90;;;;;;4987122;28;20460;-55
2021/12/08 00:37:23;;;;;;;40.50;24.87;;;0.10;99.90;;;;;;4988672;28;20507;-53
2021/12/08 00:39:52;;;;;;;35.90;23.93;;;0.10;99.90;;;;;;4985992;28;20496;-55
2021/12/08 00:42:19;;;;;;;34.93;22.43;;;0.10;99.90;;;;;;4991110;28;20559;-55
2021/12/08 00:44:45;;;;;;;36.30;24.40;;;0.10;99.90;;;;;;4995715;28;20547;-53
2021/12/08 00:47:12;;;;;;;31.73;22.97;;;0.10;99.90;;;;;;4991310;28;20615;-54
2021/12/08 00:49:40;;;;;;;41.80;25.80;;;0.10;99.90;;;;;;4993933;28;20920;-55
2021/12/08 00:52:07;;;;;;;36.17;22.50;;;0.00;99.90;;;;;;4991782;28;20576;-54
2021/12/08 00:54:34;;;;;;;38.20;25.50;;;0.10;99.90;;;;;;4992669;28;20500;-54
2021/12/08 00:57:01;;;;;;;33.33;23.83;;;0.00;99.90;;;;;;4993684;28;20503;-55
2021/12/08 00:59:28;;;;;;;36.30;24.07;;;0.00;99.90;;;;;;4992514;28;20521;-54
2021/12/08 01:01:54;;;;;;;33.17;23.50;;;0.00;99.90;;;;;;4996401;28;20460;-53
2021/12/08 01:04:21;;;;;;;36.33;24.03;;;0.00;97.60;;;;;;4987467;28;20520;-54
2021/12/08 01:06:49;;;;;;;37.13;25.03;;;0.00;99.90;;;;;;4992247;28;20503;-55
2021/12/08 01:09:16;;;;;;;37.07;24.93;;;0.00;99.90;;;;;;4991628;28;20493;-56
2021/12/08 01:11:43;;;;;;;37.47;23.80;;;0.00;99.90;;;;;;4993762;28;21005;-54
2021/12/08 01:14:10;;;;;;;40.20;23.77;;;-0.10;99.90;;;;;;4991832;28;20492;-54
2021/12/08 01:16:36;;;;;;;34.63;22.87;;;0.00;99.90;;;;;;4990950;28;20523;-54
2021/12/08 01:19:03;;;;;;;37.37;23.50;;;0.00;99.90;;;;;;4991694;28;20503;-54
2021/12/08 01:21:30;;;;;;;32.40;22.03;;;0.00;99.90;;;;;;4989225;28;20516;-55
2021/12/08 01:23:58;;;;;;;34.00;22.97;;;-0.10;99.90;;;;;;4990577;28;20496;-55
2021/12/08 01:26:26;;;;;;;34.30;23.50;;;-0.10;99.90;;;;;;4992350;28;20512;-54
2021/12/08 01:28:55;;;;;;;33.67;23.50;;;0.00;99.90;;;;;;4989063;28;20461;-54
2021/12/08 01:31:22;;;;;;;38.20;24.07;;;-0.10;99.90;;;;;;4996834;28;21005;-55
2021/12/08 01:33:49;;;;;;;32.90;22.40;;;0.00;99.90;;;;;;4993991;28;20558;-55
2021/12/08 01:36:16;;;;;;;40.83;24.93;;;-0.10;99.90;;;;;;4992561;28;20469;-54
2021/12/08 01:38:43;;;;;;;38.17;24.43;;;0.00;99.90;;;;;;4988749;28;20507;-54
2021/12/08 01:41:11;;;;;;;39.03;25.17;;;0.00;99.90;;;;;;4994475;28;20516;-55
2021/12/08 01:43:43;;;;;;;33.60;23.30;;;0.00;99.90;;;;;;4991160;28;20460;-59
2021/12/08 01:46:11;;;;;;;33.53;22.90;;;0.00;99.90;;;;;;4994648;28;20480;-54
2021/12/08 01:48:39;;;;;;;36.50;24.50;;;0.00;99.90;;;;;;4985003;28;20551;-54
2021/12/08 01:51:10;;;;;;;35.70;23.67;;;-0.10;99.90;;;;;;4989864;28;20512;-53
2021/12/08 01:53:37;;;;;;;41.83;25.30;;;-0.10;99.90;;;;;;4989135;28;20492;-54
2021/12/08 01:56:05;;;;;;;38.40;25.33;;;-0.10;99.90;;;;;;4990770;28;20496;-55
2021/12/08 01:58:33;;;;;;;33.90;22.97;;;-0.10;99.90;;;;;;4990902;28;20495;-54
2021/12/08 02:01:03;;;;;;;36.93;24.47;;;-0.10;99.90;;;;;;4989859;28;20515;-54
2021/12/08 02:03:30;;;;;;;35.03;23.50;;;-0.10;99.90;;;;;;4986858;28;20547;-54
2021/12/08 02:05:58;;;;;;;36.43;21.17;;;0.00;99.90;;;;;;4991741;28;20607;-54
2021/12/08 02:08:25;;;;;;;38.73;23.40;;;0.00;99.90;;;;;;4984639;28;20556;-55
2021/12/08 02:10:52;;;;;;;36.27;23.53;;;0.00;99.90;;;;;;4984579;28;20512;-55
2021/12/08 02:13:19;;;;;;;33.00;23.53;;;-0.10;99.90;;;;;;4990730;28;20572;-54
2021/12/08 02:15:48;;;;;;;35.17;24.53;;;0.00;99.90;;;;;;4991600;28;20507;-55
2021/12/08 02:18:17;;;;;;;34.70;23.43;;;0.00;99.90;;;;;;4988637;28;20469;-54
2021/12/08 02:20:46;;;;;;;36.97;23.30;;;0.00;99.90;;;;;;4991201;28;20523;-54
2021/12/08 02:23:14;;;;;;;38.00;24.90;;;-0.10;99.90;;;;;;4992196;28;20503;-54
2021/12/08 02:25:41;;;;;;;32.87;24.00;;;0.00;99.90;;;;;;4995504;28;20940;-54
2021/12/08 02:28:09;;;;;;;33.47;22.50;;;0.00;99.90;;;;;;4990329;28;21007;-55
2021/12/08 02:30:42;;;;;;;32.23;22.10;;;0.00;99.90;;;;;;4991773;28;20817;-55
2021/12/08 02:47:06;;;;;;;32.90;23.90;;;-0.10;99.90;;;;;;4990898;28;20460;-48
2021/12/08 02:49:33;;;;;;;34.27;23.50;;;-0.20;99.90;;;;;;5017580;28;20545;-49
2021/12/08 02:52:02;;;;;;;33.67;22.00;;;-0.20;99.90;;;;;;5020638;28;20484;-49
2021/12/08 02:54:35;;;;;;;36.70;23.87;;;-0.20;99.90;;;;;;5010365;28;20467;-49
2021/12/08 02:57:02;;;;;;;37.70;24.93;;;-0.20;99.90;;;;;;5017317;28;20541;-49
2021/12/08 02:59:29;;;;;;;32.93;23.50;;;-0.20;99.90;;;;;;5022302;28;20487;-48
2021/12/08 03:01:56;;;;;;;36.00;22.53;;;-0.20;99.90;;;;;;5011517;28;20561;-49
2021/12/08 03:04:22;;;;;;;30.73;22.30;;;-0.30;99.90;;;;;;5020920;28;20490;-52
2021/12/08 03:06:49;;;;;;;31.70;21.67;;;-0.20;99.90;;;;;;5024935;28;20549;-49
2021/12/08 03:09:16;;;;;;;32.83;22.70;;;-0.30;99.90;;;;;;5022701;28;20544;-48
2021/12/08 03:11:44;;;;;;;35.77;23.30;;;-0.30;99.90;;;;;;5007229;28;21035;-50
2021/12/08 03:14:13;;;;;;;32.33;22.97;;;-0.30;99.90;;;;;;5012261;28;20494;-48
2021/12/08 03:16:44;;;;;;;34.00;22.53;;;-0.30;99.90;;;;;;5005567;28;20519;-49
2021/12/08 03:19:11;;;;;;;30.37;22.30;;;-0.30;99.90;;;;;;5001960;28;20529;-49
2021/12/08 03:21:38;;;;;;;32.13;22.93;;;-0.30;99.90;;;;;;5016668;28;20530;-49
2021/12/08 03:24:14;;;;;;;33.50;23.57;;;-0.30;99.90;;;;;;5015410;28;20521;-48
2021/12/08 03:26:49;;;;;;;36.07;22.73;;;-0.30;99.90;;;;;;5010511;28;20849;-49
2021/12/08 03:29:24;;;;;;;32.37;22.10;;;-0.30;99.90;;;;;;5016195;28;20459;-48
2021/12/08 03:31:53;;;;;;;34.17;22.27;;;-0.30;99.90;;;;;;5021915;28;20552;-50
2021/12/08 03:34:23;;;;;;;33.63;21.63;;;-0.30;99.90;;;;;;5016087;28;20460;-49
2021/12/08 03:36:50;;;;;;;31.50;21.67;;;-0.30;99.90;;;;;;5007287;28;20452;-48
2021/12/08 03:39:17;;;;;;;26.30;19.63;;;-0.40;99.90;;;;;;5012223;28;20544;-50
2021/12/08 03:41:44;;;;;;;29.87;21.27;;;-0.30;99.90;;;;;;5017662;28;20580;-50
2021/12/08 03:44:10;;;;;;;31.97;22.73;;;-0.30;99.90;;;;;;5013254;28;20499;-48
2021/12/08 03:46:41;;;;;;;30.73;22.43;;;-0.30;99.90;;;;;;5014713;28;21019;-56
2021/12/08 03:49:11;;;;;;;28.23;21.37;;;-0.30;99.90;;;;;;5010794;28;20525;-49
2021/12/08 03:51:38;;;;;;;30.57;21.47;;;-0.40;99.90;;;;;;5021662;28;20975;-49
2021/12/08 03:54:06;;;;;;;30.80;22.27;;;-0.30;99.90;;;;;;5022470;28;20465;-49
2021/12/08 03:56:32;;;;;;;32.03;21.17;;;-0.30;99.90;;;;;;5026620;28;20455;-48
2021/12/08 03:58:59;;;;;;;29.90;21.30;;;-0.40;99.90;;;;;;5014749;28;20467;-48
2021/12/08 04:01:25;;;;;;;32.30;21.27;;;-0.30;99.90;;;;;;5019654;28;21078;-48
2021/12/08 04:03:55;;;;;;;32.50;22.60;;;-0.40;99.90;;;;;;5011935;28;20495;-49
2021/12/08 04:06:31;;;;;;;30.50;21.50;;;-0.30;99.90;;;;;;5022426;28;21047;-53
2021/12/08 04:09:01;;;;;;;30.10;21.37;;;-0.30;99.90;;;;;;5024277;28;20455;-53
2021/12/08 04:11:27;;;;;;;30.67;22.80;;;-0.30;99.90;;;;;;5014971;28;20479;-52
2021/12/08 04:13:59;;;;;;;30.50;21.20;;;-0.30;99.90;;;;;;5013659;28;20486;-52
2021/12/08 04:16:29;;;;;;;31.50;22.23;;;-0.30;99.90;;;;;;5020948;28;20543;-53
2021/12/08 04:18:58;;;;;;;34.17;23.07;;;-0.30;99.90;;;;;;5016361;28;20490;-52
2021/12/08 04:21:25;;;;;;;31.07;22.33;;;-0.30;99.90;;;;;;5012095;28;20574;-52
2021/12/08 04:23:52;;;;;;;33.10;22.70;;;-0.20;99.90;;;;;;5013089;28;20469;-52
2021/12/08 04:26:24;;;;;;;38.23;22.80;;;-0.20;99.90;;;;;;5028157;28;20510;-52
2021/12/08 04:28:52;;;;;;;30.90;22.17;;;-0.20;99.90;;;;;;5018182;28;20466;-53
2021/12/08 04:31:21;;;;;;;31.47;21.80;;;-0.20;99.90;;;;;;5015991;28;21654;-53
2021/12/08 04:33:52;;;;;;;34.97;22.83;;;-0.10;99.90;;;;;;5021252;28;20494;-52
2021/12/08 04:36:22;;;;;;;30.67;22.23;;;-0.10;99.90;;;;;;5013118;28;20482;-49
2021/12/08 04:38:53;;;;;;;31.07;21.93;;;-0.10;99.90;;;;;;5027564;28;20557;-49
2021/12/08 04:41:27;;;;;;;32.20;21.77;;;-0.20;99.90;;;;;;5006369;28;20927;-49
2021/12/08 04:44:01;;;;;;;34.37;21.67;;;-0.10;99.90;;;;;;5007171;28;20467;-50
2021/12/08 04:46:48;;;;;;;32.43;21.93;;;-0.10;99.90;;;;;;5010709;28;20834;-49
2021/12/08 04:49:32;;;;;;;36.03;22.60;;;-0.10;99.90;;;;;;5010401;28;20459;-49
2021/12/08 04:52:06;;;;;;;28.83;21.97;;;-0.10;99.90;;;;;;5018165;28;20478;-49
2021/12/08 05:00:27;;;;;;;28.47;21.77;;;0.00;99.90;;;;;;5021402;28;20593;-48
2021/12/08 05:03:18;;;;;;;31.40;23.00;;;0.00;99.90;;;;;;5009122;28;20470;-48
2021/12/08 05:06:04;;;;;;;33.83;24.23;;;0.00;99.90;;;;;;5016288;28;20487;-53
2021/12/08 05:08:41;;;;;;;31.53;21.50;;;0.00;99.90;;;;;;5008707;28;20502;-53
2021/12/08 05:11:10;;;;;;;33.00;22.13;;;0.00;99.90;;;;;;5009121;28;20508;-52
2021/12/08 05:13:38;;;;;;;34.23;22.17;;;0.10;99.90;;;;;;5015659;28;20514;-52
2021/12/08 05:16:05;;;;;;;30.17;22.13;;;0.20;99.90;;;;;;5011361;28;20518;-52
2021/12/08 05:18:35;;;;;;;35.57;22.80;;;0.20;99.90;;;;;;5015680;28;20875;-53
2021/12/08 05:21:06;;;;;;;32.93;22.70;;;0.00;99.90;;;;;;5022757;28;20515;-53
2021/12/08 05:23:40;;;;;;;28.47;22.37;;;0.10;99.90;;;;;;5010645;28;20499;-52
2021/12/08 05:26:12;;;;;;;29.47;20.43;;;0.00;99.90;;;;;;5017538;28;20898;-52
2021/12/08 05:28:39;;;;;;;31.27;21.23;;;0.00;99.90;;;;;;5022450;28;20525;-52
2021/12/08 05:31:09;;;;;;;32.93;23.00;;;0.00;99.90;;;;;;5018915;28;20521;-52
2021/12/08 05:33:36;;;;;;;32.07;22.53;;;0.00;99.90;;;;;;5006027;28;20456;-52
2021/12/08 05:36:04;;;;;;;31.27;22.60;;;0.00;99.90;;;;;;5014808;28;20976;-52
2021/12/08 05:38:30;;;;;;;32.40;22.57;;;-0.10;99.90;;;;;;5010435;28;20483;-51
2021/12/08 05:41:02;;;;;;;33.47;21.63;;;-0.10;99.90;;;;;;5012077;28;20526;-52
2021/12/08 05:43:29;;;;;;;33.10;22.00;;;-0.10;99.90;;;;;;5013212;28;20490;-51
2021/12/08 05:45:56;;;;;;;36.43;23.97;;;-0.10;99.90;;;;;;5019461;28;20567;-52
2021/12/08 05:48:23;;;;;;;35.37;23.53;;;-0.10;99.90;;;;;;5011361;28;20490;-52
2021/12/08 05:50:53;;;;;;;34.70;23.50;;;0.00;99.90;;;;;;5010717;28;20507;-52
2021/12/08 05:53:21;;;;;;;30.40;22.00;;;-0.10;99.90;;;;;;5031028;28;20502;-51
2021/12/08 05:55:48;;;;;;;31.93;22.67;;;-0.10;99.90;;;;;;5012854;28;20557;-51
2021/12/08 05:58:18;;;;;;;31.57;22.40;;;-0.10;99.90;;;;;;5018631;28;20553;-54
2021/12/08 06:00:51;;;;;;;35.90;24.50;;;-0.10;99.90;;;;;;5016484;28;20536;-54
2021/12/08 06:03:18;;;;;;;32.67;22.80;;;-0.10;99.90;;;;;;5006598;28;20495;-55
2021/12/08 06:05:47;;;;;;;28.03;21.30;;;-0.20;99.90;;;;;;5013971;28;20998;-55
2021/12/08 06:08:14;;;;;;;36.83;22.57;;;-0.20;99.90;;;;;;5008587;28;20470;-56
2021/12/08 06:10:42;;;;;;;33.07;21.97;;;-0.20;99.90;;;;;;5003515;28;20925;-55
2021/12/08 06:13:12;;;;;;;30.73;21.67;;;-0.30;99.90;;;;;;5008836;28;20459;-54
2021/12/08 06:15:41;;;;;;;30.03;23.00;;;-0.20;99.90;;;;;;5019598;28;20491;-55
2021/12/08 06:18:09;;;;;;;31.53;20.90;;;-0.30;99.90;;;;;;5012659;28;20459;-54
2021/12/08 06:20:36;;;;;;;30.10;19.93;;;-0.30;99.90;;;;;;5005257;28;20545;-53
2021/12/08 06:23:05;;;;;;;30.30;22.20;;;-0.20;99.90;;;;;;5001487;28;20588;-55
2021/12/08 06:25:32;;;;;;;32.40;21.33;;;-0.20;99.90;;;;;;5005155;28;21050;-54
2021/12/08 06:27:59;;;;;;;39.37;24.73;;;-0.30;99.90;;;;;;5015273;28;20486;-54
2021/12/08 06:30:29;;;;;;;30.20;22.40;;;-0.30;99.90;;;;;;5017535;28;20929;-55
2021/12/08 06:32:57;;;;;;;28.23;20.70;;;-0.30;99.90;;;;;;5007486;28;20793;-51
2021/12/08 06:35:38;;;;;;;29.30;19.90;;;-0.30;99.90;;;;;;5014823;28;20490;-51
2021/12/08 06:38:06;;;;;;;28.03;20.90;;;-0.30;99.90;;;;;;5010366;28;20463;-51
2021/12/08 06:40:37;;;;;;;32.50;21.30;;;-0.40;99.90;;;;;;5010628;28;20507;-51
2021/12/08 06:43:06;;;;;;;31.70;22.60;;;-0.30;99.90;;;;;;5008239;28;20907;-51
2021/12/08 06:45:37;;;;;;;37.40;23.60;;;-0.30;99.90;;;;;;5008307;28;20551;-51
2021/12/08 06:48:09;;;;;;;32.87;22.67;;;-0.40;99.90;;;;;;5006669;28;20569;-50
2021/12/08 06:50:40;;;;;;;33.40;23.00;;;-0.40;99.90;;;;;;5010777;28;20511;-51
2021/12/08 06:53:07;;;;;;;36.13;22.70;;;-0.40;99.90;;;;;;5009984;28;20495;-51
2021/12/08 06:55:36;;;;;;;32.17;22.93;;;-0.30;99.90;;;;;;5009673;28;20457;-51
2021/12/08 06:58:07;;;;;;;33.20;23.10;;;-0.30;99.90;;;;;;5016947;28;20527;-52
2021/12/08 07:00:48;;;;;;;36.30;23.70;;;-0.30;99.90;;;;;;5012033;28;20487;-52
2021/12/08 07:03:31;;;;;;;34.00;21.77;;;-0.20;99.90;;;;;;5009122;28;20541;-52
2021/12/08 07:06:09;;;;;;;34.07;22.17;;;-0.30;99.90;;;;;;5010234;28;20506;-52
2021/12/08 07:08:42;;;;;;;32.30;22.47;;;-0.20;99.90;;;;;;5009336;28;20467;-52
2021/12/08 07:11:08;;;;;;;33.37;22.63;;;-0.20;99.90;;;;;;5012177;28;20871;-51
2021/12/08 07:13:37;;;;;;;42.30;24.80;;;-0.20;99.90;;;;;;5011258;28;20496;-51
2021/12/08 07:16:09;;;;;;;34.53;22.43;;;-0.30;99.90;;;;;;5002354;28;20459;-53
2021/12/08 07:18:50;;;;;;;35.93;23.70;;;-0.20;99.90;;;;;;5013718;28;20513;-52
2021/12/08 07:21:17;;;;;;;36.43;24.07;;;-0.30;99.90;;;;;;5009643;28;20490;-52
2021/12/08 07:23:49;;;;;;;32.97;21.90;;;-0.30;99.90;;;;;;5015108;28;20870;-52
2021/12/08 07:26:22;;;;;;;31.70;22.77;;;-0.30;99.90;;;;;;5009684;28;20483;-51
2021/12/08 07:28:50;;;;;;;36.23;23.70;;;-0.30;99.90;;;;;;5010929;28;20542;-53
2021/12/08 07:31:25;;;;;;;43.23;24.70;;;-0.20;99.90;;;;;;5013684;28;20488;-53
2021/12/08 07:33:56;;;;;;;34.47;23.90;;;-0.10;99.90;;;;;;5021475;28;20494;-52
2021/12/08 07:36:24;;;;;;;36.90;24.50;;;-0.30;99.90;;;;;;5012834;28;21172;-52
2021/12/08 07:38:55;;;;;;;37.77;23.43;;;-0.20;99.90;;;;;;5010273;28;20456;-52
2021/12/08 07:41:25;;;;;;;32.30;22.17;;;-0.10;99.90;;;;;;5009319;28;20537;-52
2021/12/08 07:43:55;;;;;;;35.97;25.60;;;-0.10;99.90;;;;;;5021035;28;20489;-51
2021/12/08 07:46:26;;;;;;;38.10;24.37;;;-0.10;99.90;;;;;;5030093;28;20569;-51
2021/12/08 07:48:57;;;;;;;36.30;24.00;;;-0.20;99.90;;;;;;5025607;28;20487;-51
2021/12/08 07:51:28;;;;;;;38.17;25.40;;;-0.10;99.90;;;;;;5014542;28;20486;-52
2021/12/08 07:53:56;;;;;;;40.23;23.50;;;-0.10;99.90;;;;;;5014213;28;20493;-51
2021/12/08 07:56:25;;;;;;;37.33;23.07;;;0.00;99.90;;;;;;5014497;28;21002;-51
2021/12/08 07:58:56;;;;;;;39.43;25.10;;;0.00;99.90;;;;;;5015537;28;20458;-51
2021/12/08 08:01:26;;;;;;;37.50;24.67;;;-0.10;99.90;;;;;;5015576;28;20487;-52
2021/12/08 08:03:55;;;;;;;35.63;23.70;;;0.00;99.90;;;;;;5015078;28;20487;-52
2021/12/08 08:06:27;;;;;;;35.90;24.30;;;-0.10;99.90;;;;;;5013732;28;20495;-52
2021/12/08 08:08:54;;;;;;;38.20;24.03;;;0.00;99.90;;;;;;5007180;28;21072;-52
2021/12/08 08:11:23;;;;;;;37.53;24.67;;;0.00;99.90;;;;;;5013558;28;20724;-52
2021/12/08 08:13:51;;;;;;;40.67;24.10;;;0.10;99.90;;;;;;5011679;28;20968;-53
2021/12/08 08:16:21;;;;;;;43.03;26.07;;;0.00;99.90;;;;;;5013871;28;20578;-52
2021/12/08 08:18:53;;;;;;;42.17;26.53;;;0.10;99.90;;;;;;4998580;28;21042;-52
2021/12/08 08:21:25;;;;;;;43.77;25.90;;;0.20;99.90;;;;;;5008923;28;20840;-48
2021/12/08 08:23:52;;;;;;;44.23;27.53;;;0.20;99.90;;;;;;5008911;28;20517;-47
2021/12/08 08:26:19;;;;;;;45.20;26.67;;;0.10;99.90;;;;;;5014769;28;20509;-47
2021/12/08 08:28:50;;;;;;;43.40;26.60;;;0.10;99.90;;;;;;5012458;28;20557;-47
2021/12/08 08:31:20;;;;;;;40.23;24.63;;;0.10;99.90;;;;;;5013631;28;20482;-47
2021/12/08 08:33:48;;;;;;;44.40;25.43;;;0.20;99.90;;;;;;5017731;28;20466;-47
2021/12/08 08:36:18;;;;;;;43.90;26.90;;;0.10;99.90;;;;;;5013124;28;20472;-47
2021/12/08 08:38:52;;;;;;;44.80;27.57;;;0.20;99.90;;;;;;5012554;28;20459;-47
2021/12/08 08:41:22;;;;;;;42.77;26.13;;;0.20;99.90;;;;;;5009483;28;20498;-47
2021/12/08 08:43:51;;;;;;;45.83;26.73;;;0.30;99.90;;;;;;5013291;28;20492;-47
2021/12/08 08:46:21;;;;;;;47.83;26.00;;;0.30;99.90;;;;;;5018036;22;20599;-54
2021/12/08 08:48:52;;;;;;;47.13;27.10;;;0.30;99.90;;;;;;4969062;28;20874;-54
2021/12/08 08:51:22;;;;;;;53.37;28.67;;;0.30;99.90;;;;;;4971556;28;20461;-54
2021/12/08 08:53:53;;;;;;;45.10;26.63;;;0.30;99.90;;;;;;4972607;28;20481;-54
2021/12/08 08:56:25;;;;;;;44.90;27.03;;;0.20;99.90;;;;;;4978222;28;20916;-56
2021/12/08 08:58:57;;;;;;;51.93;28.53;;;0.30;99.90;;;;;;4992389;28;20477;-54
2021/12/08 09:01:28;;;;;;;46.33;24.40;;;0.30;99.90;;;;;;4990396;28;20524;-54
2021/12/08 09:03:59;;;;;;;49.10;27.97;;;0.30;99.90;;;;;;4992275;28;20508;-54
2021/12/08 09:06:30;;;;;;;50.20;29.03;;;0.30;99.90;;;;;;4990686;28;20523;-54
2021/12/08 09:09:01;;;;;;;44.73;27.73;;;0.40;99.90;;;;;;4991647;28;20477;-55
2021/12/08 09:11:36;;;;;;;43.07;25.73;;;0.30;99.90;;;;;;4990566;28;20969;-53
2021/12/08 09:14:09;;;;;;;42.20;26.40;;;0.40;99.90;;;;;;4991241;28;20860;-54
2021/12/08 09:16:39;;;;;;;45.80;28.13;;;0.30;99.90;;;;;;4990415;28;20571;-54
2021/12/08 09:19:10;;;;;;;44.00;23.60;;;0.30;99.90;;;;;;4991406;28;20510;-54
2021/12/08 09:21:42;;;;;;;52.30;27.30;;;0.40;99.90;;;;;;4990392;28;20965;-53
2021/12/08 09:24:15;;;;;;;45.87;27.47;;;0.40;99.90;;;;;;4991048;28;20471;-54
2021/12/08 09:26:53;;;;;;;37.93;24.67;;;0.40;99.90;;;;;;4989230;28;20849;-53
2021/12/08 09:29:23;;;;;;;41.70;25.33;;;0.30;99.90;;;;;;4990048;28;20491;-54
2021/12/08 09:31:55;;;;;;;47.10;26.20;;;0.40;99.90;;;;;;4986323;28;20472;-55
2021/12/08 09:34:25;;;;;;;39.57;24.03;;;0.30;99.90;;;;;;4989953;28;20468;-55
2021/12/08 09:36:54;;;;;;;46.90;25.23;;;0.40;99.90;;;;;;4991595;28;20562;-54
2021/12/08 09:39:26;;;;;;;40.90;23.67;;;0.40;99.90;;;;;;4990988;28;20452;-54
2021/12/08 09:41:57;;;;;;;46.83;27.50;;;0.40;99.90;;;;;;4991419;28;20507;-55
2021/12/08 09:44:30;;;;;;;43.53;25.30;;;0.40;99.90;;;;;;4992277;28;20488;-55
2021/12/08 09:46:57;;;;;;;46.73;25.40;;;0.50;99.90;;;;;;4981927;28;21004;-54
2021/12/08 09:49:26;;;;;;;41.73;24.23;;;0.40;99.90;;;;;;4990381;28;20524;-54
2021/12/08 09:51:55;;;;;;;45.07;28.07;;;0.60;99.90;;;;;;4995128;28;20505;-54
2021/12/08 09:54:24;;;;;;;47.30;27.23;;;0.50;21.90;;;;;;4990790;28;20572;-55
2021/12/08 09:56:52;;;;;;;45.93;25.60;;;0.50;99.90;;;;;;4989248;28;20806;-56
2021/12/08 09:59:20;;;;;;;48.10;28.37;;;0.60;99.90;;;;;;4991900;28;20484;-54
2021/12/08 10:01:49;;;;;;;45.30;26.50;;;0.60;99.90;;;;;;4989304;28;20499;-53
2021/12/08 10:04:16;;;;;;;40.87;25.37;;;0.60;77.60;;;;;;4990317;28;20965;-54
2021/12/08 10:06:49;;;;;;;46.13;28.50;;;0.60;20.50;;;;;;4988170;28;20516;-54
2021/12/08 10:09:16;;;;;;;50.00;27.67;;;0.60;99.90;;;;;;4986504;28;20465;-53
2021/12/08 10:11:44;;;;;;;43.07;26.90;;;0.60;90.20;;;;;;4988317;28;20461;-53
2021/12/08 10:14:11;;;;;;;43.77;27.20;;;0.60;99.90;;;;;;4988381;28;20559;-54
2021/12/08 10:16:38;;;;;;;42.87;26.03;;;0.60;22.20;;;;;;4989509;28;20496;-56
2021/12/08 10:19:06;;;;;;;48.93;26.83;;;0.70;21.70;;;;;;4989561;28;20493;-53
2021/12/08 10:21:35;;;;;;;45.80;26.47;;;0.60;99.60;;;;;;4987643;28;20548;-54
2021/12/08 10:24:12;;;;;;;50.27;27.60;;;0.70;99.90;;;;;;4987951;28;20958;-53
2021/12/08 10:26:39;;;;;;;43.33;27.03;;;0.80;99.90;;;;;;4991620;28;20916;-54
2021/12/08 10:29:07;;;;;;;51.77;26.20;;;0.70;30.20;;;;;;4991194;28;20534;-55
2021/12/08 10:31:39;;;;;;;45.70;27.10;;;0.70;20.70;;;;;;4994127;28;20511;-53
2021/12/08 10:34:20;;;;;;;49.60;27.83;;;0.80;99.90;;;;;;4992469;28;20491;-55
2021/12/08 10:36:52;;;;;;;48.63;28.27;;;0.80;25.50;;;;;;4991207;28;20488;-54
2021/12/08 10:39:28;;;;;;;46.67;27.13;;;0.80;27.30;;;;;;4989154;28;20448;-55
2021/12/08 10:42:13;;;;;;;45.00;27.33;;;0.80;30.40;;;;;;4987538;28;20448;-54
2021/12/08 10:44:47;;;;;;;44.40;26.53;;;0.90;21.40;;;;;;4992476;28;20484;-54
2021/12/08 10:47:17;;;;;;;46.07;27.63;;;0.90;29.40;;;;;;4990293;28;20488;-53
2021/12/08 10:55:18;;;;;;;54.43;29.60;;;1.00;30.20;;;;;;4979289;28;20440;-55
2021/12/08 10:57:49;;;;;;;43.40;28.30;;;1.00;52.70;;;;;;4989765;28;20476;-54
2021/12/08 11:00:20;;;;;;;44.17;26.73;;;1.10;47.60;;;;;;4981904;28;20455;-54
2021/12/08 11:02:52;;;;;;;45.73;27.60;;;1.00;48.80;;;;;;4991958;28;20907;-54
2021/12/08 11:05:45;;;;;;;42.10;25.60;;;1.10;58.30;;;;;;4990332;28;20491;-54
2021/12/08 11:08:17;;;;;;;49.80;27.90;;;1.10;47.00;;;;;;4981908;28;20543;-54
2021/12/08 11:10:46;;;;;;;46.47;27.83;;;1.20;50.20;;;;;;4988719;28;20577;-53
2021/12/08 11:13:16;;;;;;;51.00;28.20;;;1.20;50.40;;;;;;4988680;28;20488;-54
2021/12/08 11:15:44;;;;;;;44.73;25.60;;;1.10;62.60;;;;;;4990751;28;20488;-54
2021/12/08 11:18:19;;;;;;;40.87;22.20;;;1.20;66.30;;;;;;4993130;28;20504;-54
2021/12/08 11:20:50;;;;;;;44.90;29.23;;;1.20;50.20;;;;;;4994117;28;21038;-55
2021/12/08 11:23:29;;;;;;;43.20;27.47;;;1.30;63.60;;;;;;4991850;28;20550;-56
2021/12/08 11:25:58;;;;;;;46.67;28.20;;;1.20;56.40;;;;;;5001232;28;20463;-55
2021/12/08 11:28:29;;;;;;;46.13;27.10;;;1.30;48.90;;;;;;4991953;28;20488;-55
2021/12/08 11:31:06;;;;;;;44.13;25.27;;;1.20;55.10;;;;;;4994414;28;20914;-54
2021/12/08 11:33:36;;;;;;;53.17;30.00;;;1.10;52.90;;;;;;4981872;28;20472;-54
2021/12/08 11:36:16;;;;;;;39.50;25.07;;;1.20;44.70;;;;;;4990585;28;21088;-54
2021/12/08 11:38:44;;;;;;;48.67;27.10;;;1.10;51.60;;;;;;4988730;28;20499;-54
2021/12/08 11:41:25;;;;;;;42.30;25.03;;;1.20;48.90;;;;;;4994094;28;20496;-54
2021/12/08 11:43:54;;;;;;;50.00;28.20;;;1.10;39.60;;;;;;4989838;28;20491;-54
2021/12/08 11:46:23;;;;;;;50.73;29.23;;;1.10;41.60;;;;;;4988448;28;20535;-54
2021/12/08 11:49:03;;;;;;;46.30;26.10;;;1.10;34.90;;;;;;4993820;28;20995;-54
2021/12/08 11:51:37;;;;;;;51.93;26.07;;;1.20;38.40;;;;;;4991043;28;20789;-54
2021/12/08 11:54:04;;;;;;;44.03;25.90;;;1.10;39.40;;;;;;4990965;28;20552;-54
2021/12/08 11:56:37;;;;;;;44.23;25.00;;;1.10;37.20;;;;;;4991299;28;20476;-54
2021/12/08 11:59:07;;;;;;;44.10;26.37;;;1.10;32.60;;;;;;4992988;28;20441;-54
2021/12/08 12:01:37;;;;;;;44.27;26.33;;;1.10;29.50;;;;;;4993238;28;20499;-54
2021/12/08 12:04:05;;;;;;;46.23;25.67;;;1.10;43.90;;;;;;4984964;28;20460;-54
2021/12/08 12:06:34;;;;;;;39.50;25.37;;;1.10;45.50;;;;;;4982798;28;20469;-53
2021/12/08 12:09:02;;;;;;;47.90;27.53;;;1.00;44.50;;;;;;4988942;28;20481;-55
2021/12/08 12:11:30;;;;;;;47.90;27.47;;;1.10;42.50;;;;;;4994095;28;20499;-54
2021/12/08 12:13:59;;;;;;;48.87;26.20;;;1.10;48.20;;;;;;4988898;28;20500;-54
2021/12/08 12:16:27;;;;;;;45.60;27.90;;;1.10;42.30;;;;;;4990910;28;20473;-54
2021/12/08 12:18:58;;;;;;;45.37;27.00;;;1.20;39.70;;;;;;4993885;28;20516;-54
2021/12/08 12:21:33;;;;;;;44.43;25.43;;;1.20;45.80;;;;;;4993902;28;20475;-54
2021/12/08 12:24:11;;;;;;;45.07;26.70;;;1.20;53.30;;;;;;4992408;28;20515;-56
2021/12/08 12:26:53;;;;;;;45.13;27.20;;;1.20;50.50;;;;;;4987450;28;20472;-55
2021/12/08 12:29:28;;;;;;;47.80;28.90;;;1.20;54.50;;;;;;4993211;28;20519;-54
2021/12/08 12:32:02;;;;;;;44.13;27.30;;;1.20;47.40;;;;;;4993051;28;20476;-55
2021/12/08 12:34:33;;;;;;;51.73;27.57;;;1.20;47.40;;;;;;4991720;28;20479;-54
2021/12/08 12:37:04;;;;;;;48.77;27.33;;;1.30;41.50;;;;;;4992800;28;20511;-53
2021/12/08 12:39:31;;;;;;;45.20;25.87;;;1.20;57.60;;;;;;4992768;28;20515;-54
2021/12/08 12:42:01;;;;;;;45.70;25.27;;;1.20;56.20;;;;;;4993041;28;20492;-54
2021/12/08 12:44:30;;;;;;;47.37;29.67;;;1.30;47.70;;;;;;4992503;28;20494;-54
2021/12/08 12:47:20;;;;;;;42.73;25.07;;;1.30;60.40;;;;;;4991587;28;20858;-54
2021/12/08 12:50:08;;;;;;;45.77;28.13;;;1.30;60.70;;;;;;4987605;28;20494;-54
2021/12/08 12:52:38;;;;;;;49.47;27.47;;;1.30;57.90;;;;;;4990883;28;21036;-54
2021/12/08 12:55:12;;;;;;;43.30;26.67;;;1.30;50.80;;;;;;4990314;28;20473;-53
2021/12/08 12:58:19;;;;;;;46.60;28.07;;;1.30;49.90;;;;;;4992518;28;20891;-54
2021/12/08 13:00:50;;;;;;;45.87;26.50;;;1.20;40.10;;;;;;4985566;28;20834;-54
2021/12/08 13:03:36;;;;;;;48.40;26.33;;;1.20;34.80;;;;;;4988017;28;20460;-54
2021/12/08 13:06:05;;;;;;;54.50;28.10;;;1.10;35.10;;;;;;4988165;28;20469;-54
2021/12/08 13:08:33;;;;;;;48.27;26.50;;;1.10;26.40;;;;;;4988254;28;20484;-54
2021/12/08 13:11:05;;;;;;;58.87;29.33;;;1.10;91.50;;;;;;4989490;28;21029;-54
2021/12/08 13:13:46;;;;;;;46.67;27.53;;;1.20;28.90;;;;;;4987829;28;20475;-55
2021/12/08 13:16:22;;;;;;;48.80;27.87;;;1.10;26.30;;;;;;4990681;28;20469;-53